createdAt,value
2022-09-07T00:02:23.437Z,6.80
2022-09-07T00:04:50.488Z,6.13
2022-09-07T00:07:17.481Z,6.70
2022-09-07T00:09:44.267Z,5.90
2022-09-07T00:12:11.058Z,5.97
2022-09-07T00:14:37.865Z,10.23
2022-09-07T00:17:04.767Z,7.03
2022-09-07T00:19:31.609Z,6.30
2022-09-07T00:21:58.460Z,5.43
2022-09-07T00:24:25.398Z,4.97
2022-09-07T00:26:55.676Z,4.27
2022-09-07T00:29:23.125Z,4.97
2022-09-07T00:31:50.090Z,4.70
2022-09-07T00:34:16.953Z,5.00
2022-09-07T00:36:43.715Z,5.23
2022-09-07T00:39:10.622Z,5.70
2022-09-07T00:41:37.514Z,6.17
2022-09-07T00:44:41.777Z,5.33
2022-09-07T00:47:36.659Z,4.87
2022-09-07T00:50:08.795Z,5.67
2022-09-07T00:52:37.562Z,4.90
2022-09-07T00:55:09.754Z,5.23
2022-09-07T00:57:39.019Z,5.17
2022-09-07T01:00:07.342Z,5.30
2022-09-07T01:02:34.522Z,4.57
2022-09-07T01:05:10.733Z,5.00
2022-09-07T01:07:37.691Z,4.73
2022-09-07T01:10:04.781Z,5.40
2022-09-07T01:12:31.645Z,4.70
2022-09-07T01:14:59.386Z,5.23
2022-09-07T01:18:00.932Z,4.80
2022-09-07T01:21:00.896Z,4.33
2022-09-07T01:24:00.655Z,4.20
2022-09-07T01:26:39.770Z,4.70
2022-09-07T01:29:30.036Z,3.60
2022-09-07T01:32:13.702Z,4.20
2022-09-07T01:34:43.389Z,3.57
2022-09-07T01:37:19.562Z,3.90
2022-09-07T01:39:53.291Z,3.83
2022-09-07T01:42:26.459Z,4.03
2022-09-07T01:45:02.460Z,4.20
2022-09-07T01:47:39.058Z,3.70
2022-09-07T01:50:17.171Z,3.87
2022-09-07T01:52:52.560Z,4.13
2022-09-07T01:55:38.275Z,4.40
2022-09-07T01:58:10.854Z,3.47
2022-09-07T02:00:41.348Z,4.27
2022-09-07T02:03:15.254Z,3.80
2022-09-07T02:06:03.695Z,3.93
2022-09-07T02:09:04.698Z,4.03
2022-09-07T02:11:40.639Z,4.10
2022-09-07T02:14:40.917Z,4.40
2022-09-07T02:17:18.440Z,4.27
2022-09-07T02:19:53.404Z,4.30
2022-09-07T02:22:26.670Z,4.70
2022-09-07T02:24:58.425Z,4.00
2022-09-07T02:27:30.513Z,4.00
2022-09-07T02:29:57.929Z,4.43
2022-09-07T02:32:24.739Z,4.27
2022-09-07T02:34:51.451Z,4.00
2022-09-07T02:37:19.764Z,3.73
2022-09-07T02:39:48.060Z,4.67
2022-09-07T02:42:14.863Z,4.10
2022-09-07T02:44:45.552Z,4.27
2022-09-07T02:47:26.019Z,4.40
2022-09-07T02:49:55.592Z,4.00
2022-09-07T02:52:43.518Z,4.13
2022-09-07T02:55:37.758Z,3.90
2022-09-07T02:58:07.334Z,4.23
2022-09-07T03:00:42.596Z,4.47
2022-09-07T03:03:34.354Z,3.90
2022-09-07T03:06:10.196Z,4.80
2022-09-07T03:08:46.541Z,4.50
2022-09-07T03:11:14.282Z,3.90
2022-09-07T03:13:41.106Z,4.77
2022-09-07T03:16:16.085Z,4.23
2022-09-07T03:18:43.897Z,4.70
2022-09-07T03:21:11.031Z,4.80
2022-09-07T03:23:40.908Z,3.93
2022-09-07T03:26:07.747Z,4.10
2022-09-07T03:28:34.543Z,4.80
2022-09-07T03:31:03.021Z,4.37
2022-09-07T03:33:29.858Z,4.00
2022-09-07T03:35:59.184Z,4.33
2022-09-07T03:38:26.157Z,4.57
2022-09-07T03:41:04.532Z,5.10
2022-09-07T03:43:32.473Z,4.40
2022-09-07T03:46:07.260Z,4.73
2022-09-07T03:48:35.122Z,4.73
2022-09-07T03:51:05.323Z,4.63
2022-09-07T03:53:33.720Z,4.50
2022-09-07T03:56:03.844Z,4.23
2022-09-07T03:58:32.339Z,4.67
2022-09-07T04:01:00.168Z,4.43
2022-09-07T04:03:27.527Z,4.40
2022-09-07T04:05:54.284Z,4.03
2022-09-07T04:08:26.197Z,4.10
2022-09-07T04:10:53.008Z,4.00
2022-09-07T04:13:19.907Z,3.90
2022-09-07T04:15:49.909Z,3.73
2022-09-07T04:18:19.453Z,3.93
2022-09-07T04:20:46.488Z,4.00
2022-09-07T04:23:13.852Z,3.50
2022-09-07T04:25:50.653Z,2.93
2022-09-07T04:28:19.255Z,3.77
2022-09-07T04:30:46.262Z,3.20
2022-09-07T04:33:13.757Z,3.47
2022-09-07T04:35:41.945Z,3.50
2022-09-07T04:38:13.281Z,3.83
2022-09-07T04:40:40.046Z,3.73
2022-09-07T04:43:08.228Z,3.73
2022-09-07T04:45:37.245Z,3.70
2022-09-07T04:48:04.669Z,3.37
2022-09-07T04:50:31.798Z,4.30
2022-09-07T04:52:58.655Z,3.80
2022-09-07T04:55:25.451Z,3.90
2022-09-07T04:57:52.263Z,3.70
2022-09-07T05:00:19.511Z,3.83
2022-09-07T05:02:46.372Z,3.70
2022-09-07T05:05:13.448Z,3.93
2022-09-07T05:07:40.199Z,4.23
2022-09-07T05:10:07.515Z,4.70
2022-09-07T05:12:34.289Z,4.30
2022-09-07T05:15:01.782Z,5.23
2022-09-07T05:17:31.160Z,4.97
2022-09-07T05:19:58.221Z,5.40
2022-09-07T05:22:25.351Z,5.80
2022-09-07T05:24:52.278Z,4.80
2022-09-07T05:27:19.211Z,4.27
2022-09-07T05:30:03.691Z,5.13
2022-09-07T05:32:31.853Z,5.13
2022-09-07T05:34:58.729Z,5.17
2022-09-07T05:37:25.572Z,5.03
2022-09-07T05:39:55.111Z,5.33
2022-09-07T05:42:22.311Z,5.57
2022-09-07T05:44:49.154Z,5.20
2022-09-07T05:47:16.138Z,4.97
2022-09-07T05:49:42.976Z,6.30
2022-09-07T05:52:10.449Z,5.33
2022-09-07T05:54:37.338Z,5.43
2022-09-07T05:57:04.577Z,5.20
2022-09-07T05:59:31.445Z,4.77
2022-09-07T06:01:59.135Z,5.00
2022-09-07T06:04:26.192Z,5.13
2022-09-07T06:07:20.140Z,5.43
2022-09-07T06:12:27.205Z,5.40
2022-09-07T06:14:54.098Z,5.80
2022-09-07T06:17:20.983Z,6.07
2022-09-07T06:19:47.965Z,5.27
2022-09-07T06:22:14.739Z,5.50
2022-09-07T06:24:41.647Z,5.20
2022-09-07T06:27:08.387Z,5.17
2022-09-07T06:29:35.567Z,5.20
2022-09-07T06:34:49.815Z,8.87
2022-09-07T06:37:16.987Z,5.70
2022-09-07T06:39:44.173Z,5.10
2022-09-07T06:42:11.171Z,5.47
2022-09-07T06:44:38.011Z,4.67
2022-09-07T06:47:05.346Z,4.97
2022-09-07T06:49:32.443Z,4.67
2022-09-07T06:51:59.676Z,4.77
2022-09-07T06:57:13.436Z,4.40
2022-09-07T06:59:40.487Z,4.97
2022-09-07T07:02:08.265Z,4.37
2022-09-07T07:04:40.192Z,4.87
2022-09-07T07:07:13.992Z,4.33
2022-09-07T07:09:41.601Z,3.80
2022-09-07T07:12:10.048Z,3.80
2022-09-07T07:14:39.618Z,3.90
2022-09-07T07:17:08.137Z,4.03
2022-09-07T07:19:34.893Z,4.17
2022-09-07T07:24:48.600Z,3.70
2022-09-07T07:27:15.628Z,3.40
2022-09-07T07:29:42.952Z,2.93
2022-09-07T07:32:09.940Z,2.97
2022-09-07T07:34:36.759Z,5.70
2022-09-07T07:37:03.565Z,4.47
2022-09-07T07:42:17.129Z,4.93
2022-09-07T07:44:43.874Z,4.20
2022-09-07T07:47:11.140Z,4.00
2022-09-07T07:49:37.904Z,4.07
2022-09-07T07:54:53.062Z,3.33
2022-09-07T07:57:19.869Z,3.13
2022-09-07T07:59:46.563Z,2.73
2022-09-07T08:02:17.127Z,2.97
2022-09-07T08:04:44.495Z,3.30
2022-09-07T08:07:12.110Z,3.33
2022-09-07T08:09:44.170Z,3.30
2022-09-07T08:12:13.563Z,3.13
2022-09-07T08:14:41.363Z,2.50
2022-09-07T08:17:10.854Z,2.77
2022-09-07T08:19:38.423Z,2.93
2022-09-07T08:22:06.157Z,3.40
2022-09-07T08:24:33.637Z,2.70
2022-09-07T08:27:00.653Z,2.90
2022-09-07T08:29:31.257Z,2.80
2022-09-07T08:32:00.576Z,2.83
2022-09-07T08:34:27.466Z,4.07
2022-09-07T08:36:54.865Z,4.90
2022-09-07T08:39:21.681Z,3.10
2022-09-07T08:42:08.700Z,3.17
2022-09-07T08:44:51.165Z,4.10
2022-09-07T08:47:49.859Z,2.40
2022-09-07T08:50:31.184Z,2.67
2022-09-07T08:53:17.400Z,2.67
2022-09-07T08:55:50.023Z,2.20
2022-09-07T08:58:48.320Z,2.50
2022-09-07T09:01:35.516Z,2.30
2022-09-07T09:04:19.991Z,2.60
2022-09-07T09:06:47.260Z,2.37
2022-09-07T09:09:51.914Z,2.13
2022-09-07T09:12:37.500Z,2.40
2022-09-07T09:15:21.267Z,2.13
2022-09-07T09:18:01.812Z,2.10
2022-09-07T09:20:48.831Z,2.33
2022-09-07T09:23:21.929Z,3.13
2022-09-07T09:25:56.184Z,2.60
2022-09-07T09:28:25.484Z,2.50
2022-09-07T09:30:54.906Z,2.87
2022-09-07T09:33:25.990Z,3.00
2022-09-07T09:36:02.392Z,2.67
2022-09-07T09:38:32.150Z,2.60
2022-09-07T09:41:15.978Z,2.47
2022-09-07T09:43:51.944Z,2.50
2022-09-07T09:46:32.550Z,2.80
2022-09-07T09:49:17.291Z,2.53
2022-09-07T09:54:44.293Z,2.40
2022-09-07T09:57:38.127Z,2.30
2022-09-07T10:00:10.952Z,2.27
2022-09-07T10:05:34.240Z,2.50
2022-09-07T10:08:01.541Z,2.23
2022-09-07T10:10:29.610Z,2.47
2022-09-07T10:12:57.300Z,2.90
2022-09-07T10:15:40.206Z,2.60
2022-09-07T10:18:09.718Z,2.67
2022-09-07T10:20:38.118Z,2.20
2022-09-07T10:23:06.864Z,2.77
2022-09-07T10:25:42.026Z,2.40
2022-09-07T10:28:12.777Z,2.27
2022-09-07T10:30:58.373Z,2.50
2022-09-07T10:36:50.168Z,2.27
2022-09-07T10:39:31.816Z,2.57
2022-09-07T10:42:29.215Z,2.50
2022-09-07T10:45:15.635Z,2.40
2022-09-07T10:48:37.888Z,2.67
2022-09-07T10:51:14.313Z,2.10
2022-09-07T10:57:00.569Z,2.60
2022-09-07T11:00:10.920Z,2.50
2022-09-07T11:03:25.058Z,2.43
2022-09-07T11:05:49.033Z,2.60
2022-09-07T11:08:15.938Z,2.07
2022-09-07T11:11:20.456Z,2.17
2022-09-07T11:14:11.932Z,2.37
2022-09-07T11:16:58.024Z,2.37
2022-09-07T11:19:36.448Z,2.23
2022-09-07T11:22:31.899Z,2.10
2022-09-07T11:25:30.170Z,2.40
2022-09-07T11:28:07.888Z,2.37
2022-09-07T11:30:49.959Z,2.33
2022-09-07T11:33:25.488Z,2.10
2022-09-07T11:36:08.662Z,2.23
2022-09-07T11:38:54.277Z,1.97
2022-09-07T11:41:23.865Z,2.27
2022-09-07T11:44:02.914Z,2.10
2022-09-07T11:46:45.774Z,1.87
2022-09-07T11:49:17.531Z,2.60
2022-09-07T11:52:05.726Z,2.03
2022-09-07T11:54:48.868Z,3.00
2022-09-07T11:57:15.809Z,2.57
2022-09-07T12:00:27.773Z,2.63
2022-09-07T12:03:17.975Z,2.40
2022-09-07T12:06:02.039Z,2.43
2022-09-07T12:09:01.153Z,2.30
2022-09-07T12:11:40.933Z,2.27
2022-09-07T12:14:15.816Z,2.10
2022-09-07T12:17:14.435Z,2.03
2022-09-07T12:19:41.260Z,1.70
2022-09-07T12:22:20.821Z,2.00
2022-09-07T12:24:49.611Z,1.90
2022-09-07T12:27:22.351Z,2.37
2022-09-07T12:29:59.613Z,2.30
2022-09-07T12:32:56.817Z,1.97
2022-09-07T12:35:34.073Z,2.13
2022-09-07T12:38:01.693Z,1.90
2022-09-07T12:40:32.350Z,2.00
2022-09-07T12:43:14.786Z,2.50
2022-09-07T12:45:42.183Z,2.20
2022-09-07T12:48:14.954Z,2.43
2022-09-07T12:50:42.433Z,2.13
2022-09-07T12:53:28.178Z,3.13
2022-09-07T12:56:23.086Z,5.10
2022-09-07T12:59:20.856Z,4.33
2022-09-07T13:02:36.230Z,2.63
2022-09-07T13:05:32.619Z,3.23
2022-09-07T13:08:22.063Z,2.47
2022-09-07T13:10:49.468Z,2.00
2022-09-07T13:13:19.225Z,2.10
2022-09-07T13:15:49.538Z,2.20
2022-09-07T13:18:28.995Z,2.00
2022-09-07T13:21:08.103Z,1.83
2022-09-07T13:23:39.687Z,2.17
2022-09-07T13:26:13.268Z,2.40
2022-09-07T13:29:04.455Z,1.93
2022-09-07T13:32:01.018Z,2.13
2022-09-07T13:34:33.814Z,2.47
2022-09-07T13:37:02.232Z,2.30
2022-09-07T13:39:32.482Z,2.20
2022-09-07T13:42:00.727Z,1.93
2022-09-07T13:44:33.750Z,2.47
2022-09-07T13:47:13.068Z,2.20
2022-09-07T13:49:46.466Z,2.37
2022-09-07T13:52:22.408Z,1.70
2022-09-07T13:55:08.685Z,2.17
2022-09-07T13:57:47.014Z,1.63
2022-09-07T14:00:15.278Z,1.70
2022-09-07T14:02:42.364Z,1.43
2022-09-07T14:05:12.120Z,1.60
2022-09-07T14:07:48.285Z,1.80
2022-09-07T14:10:18.149Z,1.83
2022-09-07T14:12:47.086Z,1.73
2022-09-07T14:15:42.643Z,1.53
2022-09-07T14:18:25.213Z,1.50
2022-09-07T14:20:53.606Z,1.67
2022-09-07T14:23:32.815Z,1.70
2022-09-07T14:26:18.481Z,1.70
2022-09-07T14:28:48.188Z,1.93
2022-09-07T14:31:18.117Z,1.70
2022-09-07T14:33:57.413Z,1.93
2022-09-07T14:36:46.117Z,2.27
2022-09-07T14:39:17.740Z,1.90
2022-09-07T14:41:45.529Z,2.27
2022-09-07T14:44:40.414Z,1.70
2022-09-07T14:47:29.423Z,1.93
2022-09-07T14:50:04.818Z,1.40
2022-09-07T14:53:33.344Z,1.83
2022-09-07T14:55:40.239Z,7.67
2022-09-07T14:58:16.229Z,5.47
2022-09-07T15:03:39.077Z,6.43
2022-09-07T15:06:07.780Z,3.23
2022-09-07T15:08:43.344Z,5.67
2022-09-07T15:11:34.022Z,4.23
2022-09-07T15:14:11.693Z,3.20
2022-09-07T15:16:42.805Z,3.13
2022-09-07T15:19:15.737Z,2.60
2022-09-07T15:21:43.675Z,2.57
2022-09-07T15:24:11.710Z,2.63
2022-09-07T15:27:04.957Z,2.10
2022-09-07T15:29:32.348Z,2.70
2022-09-07T15:32:04.908Z,1.90
2022-09-07T15:34:35.636Z,1.97
2022-09-07T15:37:03.651Z,2.03
2022-09-07T15:39:31.382Z,2.20
2022-09-07T15:42:00.606Z,2.63
2022-09-07T15:44:45.311Z,2.10
2022-09-07T15:49:58.966Z,1.97
2022-09-07T15:52:25.815Z,2.40
2022-09-07T15:54:53.003Z,1.47
2022-09-07T16:00:07.504Z,1.90
2022-09-07T16:05:31.188Z,1.93
2022-09-07T16:10:53.578Z,1.53
2022-09-07T16:13:23.812Z,1.67
2022-09-07T16:15:50.996Z,1.67
2022-09-07T16:18:19.094Z,1.70
2022-09-07T16:20:46.341Z,2.00
2022-09-07T16:23:15.848Z,1.37
2022-09-07T16:25:58.578Z,1.53
2022-09-07T16:28:26.869Z,1.90
2022-09-07T16:30:54.055Z,1.70
2022-09-07T16:33:21.270Z,1.90
2022-09-07T16:36:02.430Z,1.60
2022-09-07T16:38:47.312Z,1.73
2022-09-07T16:41:23.352Z,1.73
2022-09-07T16:43:50.679Z,1.80
2022-09-07T16:46:19.710Z,1.80
2022-09-07T16:48:46.668Z,1.70
2022-09-07T16:51:15.544Z,1.77
2022-09-07T16:53:42.699Z,1.90
2022-09-07T16:56:12.883Z,1.67
2022-09-07T16:58:45.363Z,2.00
2022-09-07T17:01:14.647Z,1.77
2022-09-07T17:03:42.591Z,2.07
2022-09-07T17:06:11.600Z,1.93
2022-09-07T17:08:39.546Z,2.07
2022-09-07T17:11:27.205Z,2.50
2022-09-07T17:13:56.994Z,2.17
2022-09-07T17:16:29.816Z,2.70
2022-09-07T17:21:46.998Z,2.70
2022-09-07T17:24:13.794Z,2.30
2022-09-07T17:26:42.923Z,2.23
2022-09-07T17:29:10.455Z,2.93
2022-09-07T17:34:26.266Z,2.27
2022-09-07T17:36:53.091Z,2.30
2022-09-07T17:39:20.080Z,3.00
2022-09-07T17:41:48.393Z,3.17
2022-09-07T17:44:15.694Z,2.90
2022-09-07T17:46:42.586Z,2.70
2022-09-07T17:49:14.106Z,2.87
2022-09-07T17:51:41.020Z,2.37
2022-09-07T17:54:11.836Z,2.10
2022-09-07T17:56:40.525Z,2.40
2022-09-07T18:01:55.602Z,2.00
2022-09-07T18:04:23.172Z,2.07
2022-09-07T18:06:50.300Z,1.70
2022-09-07T18:09:17.482Z,2.07
2022-09-07T18:11:46.208Z,2.30
2022-09-07T18:14:14.599Z,1.90
2022-09-07T18:16:42.291Z,1.73
2022-09-07T18:19:11.116Z,1.70
2022-09-07T18:21:39.351Z,1.63
2022-09-07T18:24:13.887Z,1.80
2022-09-07T18:26:41.202Z,1.60
2022-09-07T18:29:26.278Z,1.83
2022-09-07T18:31:54.971Z,1.90
2022-09-07T18:34:21.953Z,1.93
2022-09-07T18:36:48.716Z,1.80
2022-09-07T18:39:15.521Z,2.00
2022-09-07T18:41:42.364Z,2.50
2022-09-07T18:46:56.265Z,2.57
2022-09-07T18:49:23.552Z,2.33
2022-09-07T18:54:39.015Z,3.00
2022-09-07T18:57:06.911Z,2.90
2022-09-07T18:59:33.968Z,2.87
2022-09-07T19:02:04.421Z,2.70
2022-09-07T19:07:20.937Z,2.93
2022-09-07T19:09:48.437Z,2.53
2022-09-07T19:12:15.437Z,2.67
2022-09-07T19:14:42.425Z,2.40
2022-09-07T19:17:11.055Z,2.93
2022-09-07T19:19:38.916Z,2.80
2022-09-07T19:22:06.313Z,2.80
2022-09-07T19:24:33.370Z,2.50
2022-09-07T19:27:01.014Z,3.23
2022-09-07T19:29:28.614Z,3.00
2022-09-07T19:32:04.503Z,3.63
2022-09-07T19:34:35.374Z,3.40
2022-09-07T19:37:02.904Z,2.87
2022-09-07T19:39:29.808Z,3.10
2022-09-07T19:42:03.043Z,3.67
2022-09-07T19:44:29.821Z,3.40
2022-09-07T19:46:56.758Z,3.07
2022-09-07T19:49:23.831Z,3.23
2022-09-07T19:51:52.007Z,3.23
2022-09-07T19:54:19.189Z,3.07
2022-09-07T19:56:46.274Z,3.30
2022-09-07T19:59:14.448Z,2.87
2022-09-07T20:01:46.038Z,3.23
2022-09-07T20:04:19.649Z,2.97
2022-09-07T20:06:49.782Z,3.20
2022-09-07T20:09:18.870Z,3.10
2022-09-07T20:11:47.609Z,2.67
2022-09-07T20:14:15.820Z,2.67
2022-09-07T20:16:42.952Z,2.80
2022-09-07T20:19:14.537Z,2.83
2022-09-07T20:21:41.817Z,2.83
2022-09-07T20:24:10.597Z,3.27
2022-09-07T20:26:38.083Z,3.47
2022-09-07T20:29:26.873Z,2.97
2022-09-07T20:31:52.697Z,2.80
2022-09-07T20:34:19.474Z,2.80
2022-09-07T20:36:48.522Z,2.77
2022-09-07T20:39:16.578Z,2.77
2022-09-07T20:41:43.425Z,2.83
2022-09-07T20:44:10.491Z,2.33
2022-09-07T20:46:37.556Z,3.07
2022-09-07T20:49:05.229Z,2.73
2022-09-07T20:51:32.363Z,3.10
2022-09-07T20:53:59.233Z,2.93
2022-09-07T20:56:28.206Z,2.90
2022-09-07T20:59:00.296Z,3.03
2022-09-07T21:01:28.199Z,2.67
2022-09-07T21:03:57.271Z,3.13
2022-09-07T21:06:26.240Z,3.40
2022-09-07T21:08:53.235Z,3.13
2022-09-07T21:11:25.874Z,3.13
2022-09-07T21:13:57.207Z,2.80
2022-09-07T21:16:25.441Z,2.90
2022-09-07T21:18:58.830Z,3.30
2022-09-07T21:21:27.345Z,3.30
2022-09-07T21:23:59.754Z,3.00
2022-09-07T21:26:28.001Z,3.30
2022-09-07T21:29:03.799Z,3.33
2022-09-07T21:31:32.006Z,3.10
2022-09-07T21:34:00.499Z,3.20
2022-09-07T21:36:27.833Z,3.57
2022-09-07T21:38:55.001Z,3.20
2022-09-07T21:41:23.553Z,3.77
2022-09-07T21:43:58.020Z,3.63
2022-09-07T21:46:25.756Z,6.73
2022-09-07T21:48:52.715Z,4.20
2022-09-07T21:51:19.501Z,3.00
2022-09-07T21:53:54.545Z,3.00
2022-09-07T21:56:21.813Z,2.70
2022-09-07T21:58:48.777Z,2.90
2022-09-07T22:01:19.749Z,2.40
2022-09-07T22:03:48.699Z,2.63
2022-09-07T22:06:15.627Z,2.97
2022-09-07T22:08:42.818Z,2.93
2022-09-07T22:11:12.276Z,3.20
2022-09-07T22:13:42.589Z,2.90
2022-09-07T22:16:10.911Z,3.33
2022-09-07T22:18:38.499Z,3.50
2022-09-07T22:21:06.612Z,3.93
2022-09-07T22:23:34.586Z,3.37
2022-09-07T22:26:01.468Z,3.90
2022-09-07T22:28:31.795Z,4.07
2022-09-07T22:31:10.940Z,3.57
2022-09-07T22:33:38.306Z,3.80
2022-09-07T22:36:17.404Z,3.50
2022-09-07T22:38:45.718Z,3.43
2022-09-07T22:41:21.250Z,4.27
2022-09-07T22:43:50.964Z,3.60
2022-09-07T22:46:20.166Z,3.43
2022-09-07T22:48:48.729Z,4.77
2022-09-07T22:51:16.396Z,5.13
2022-09-07T22:53:44.393Z,4.10
2022-09-07T22:56:16.677Z,4.10
2022-09-07T22:58:52.551Z,3.20
2022-09-07T23:01:20.921Z,2.70
2022-09-07T23:03:48.047Z,2.40
2022-09-07T23:06:35.473Z,1.80
2022-09-07T23:09:09.433Z,2.03
2022-09-07T23:11:36.896Z,2.30
2022-09-07T23:14:05.890Z,2.30
2022-09-07T23:16:32.883Z,1.80
2022-09-07T23:19:00.584Z,2.23
2022-09-07T23:21:28.327Z,2.40
2022-09-07T23:23:57.352Z,2.33
2022-09-07T23:26:25.722Z,2.23
2022-09-07T23:28:54.358Z,1.97
2022-09-07T23:31:21.707Z,2.20
2022-09-07T23:33:48.835Z,2.20
2022-09-07T23:36:15.993Z,2.37
2022-09-07T23:38:43.146Z,2.23
2022-09-07T23:41:10.067Z,2.00
2022-09-07T23:43:36.930Z,1.70
2022-09-07T23:46:03.775Z,1.70
2022-09-07T23:48:30.573Z,1.60
2022-09-07T23:50:57.409Z,1.67
2022-09-07T23:53:24.827Z,1.27
2022-09-07T23:55:53.225Z,1.60
2022-09-07T23:58:21.929Z,1.50
